createdAt,value
2023-05-14T00:09:27.550Z,17.55
2023-05-14T00:18:54.362Z,17.41
2023-05-14T00:57:44.606Z,17.46
2023-05-14T01:00:19.612Z,17.50
2023-05-14T02:49:00.898Z,17.06
2023-05-14T03:13:00.831Z,17.19
2023-05-14T06:18:13.387Z,17.86
2023-05-14T06:20:59.773Z,17.92
2023-05-14T06:26:30.232Z,18.13
2023-05-14T06:29:21.598Z,18.10
2023-05-14T06:31:51.568Z,17.98
2023-05-14T06:37:11.861Z,17.88
2023-05-14T06:39:50.274Z,17.87
2023-05-14T06:42:21.168Z,17.85
2023-05-14T06:44:50.393Z,17.78
2023-05-14T06:47:24.840Z,17.71
2023-05-14T06:52:45.571Z,17.73
2023-05-14T07:04:07.027Z,18.44
2023-05-14T07:07:36.215Z,18.59
2023-05-14T07:13:02.902Z,18.63
2023-05-14T07:45:34.020Z,19.10
2023-05-14T07:48:03.160Z,19.06
2023-05-14T07:50:32.104Z,19.01
2023-05-14T07:53:02.228Z,19.03
2023-05-14T07:55:31.003Z,19.10
2023-05-14T07:57:59.365Z,19.10
2023-05-14T08:00:28.576Z,18.88
2023-05-14T08:02:58.524Z,18.79
2023-05-14T08:05:26.982Z,18.68
2023-05-14T08:07:55.973Z,18.59
2023-05-14T08:10:24.599Z,18.55
2023-05-14T08:12:53.593Z,18.47
2023-05-14T08:15:22.039Z,18.46
2023-05-14T08:17:52.939Z,18.54
2023-05-14T08:20:25.530Z,18.70
2023-05-14T08:22:53.928Z,18.81
2023-05-14T08:25:23.668Z,18.84
2023-05-14T08:30:45.748Z,18.78
2023-05-14T08:36:39.546Z,19.12
2023-05-14T08:39:09.053Z,19.27
2023-05-14T08:41:38.425Z,19.23
2023-05-14T09:02:27.839Z,18.43
2023-05-14T09:04:58.943Z,18.31
2023-05-14T09:07:43.791Z,18.22
2023-05-14T09:10:13.120Z,18.16
2023-05-14T09:15:42.893Z,18.18
2023-05-14T09:18:32.563Z,18.23
2023-05-14T09:21:04.242Z,18.37
2023-05-14T09:23:35.169Z,18.47
2023-05-14T09:26:11.485Z,18.60
2023-05-14T09:28:42.585Z,18.80
2023-05-14T09:58:20.974Z,19.75
2023-05-14T10:03:51.857Z,19.50
2023-05-14T10:06:27.233Z,19.48
2023-05-14T10:09:03.046Z,19.54
2023-05-14T10:14:43.363Z,19.88
2023-05-14T10:26:23.948Z,20.19
2023-05-14T10:29:06.644Z,20.09
2023-05-14T10:31:56.517Z,19.96
2023-05-14T10:43:11.554Z,20.00
2023-05-14T10:45:45.462Z,20.05
2023-05-14T10:48:17.810Z,20.14
2023-05-14T10:50:48.342Z,20.04
2023-05-14T10:53:16.620Z,20.07
2023-05-14T10:55:45.969Z,20.18
2023-05-14T10:58:14.160Z,20.17
2023-05-14T11:00:42.883Z,20.10
2023-05-14T11:03:13.506Z,19.96
2023-05-14T11:05:43.738Z,19.94
2023-05-14T11:08:13.771Z,20.08
2023-05-14T11:10:43.951Z,20.10
2023-05-14T11:13:13.359Z,20.09
2023-05-14T11:15:47.272Z,20.21
2023-05-14T11:18:15.788Z,20.44
2023-05-14T11:20:45.497Z,20.62
2023-05-14T11:23:18.541Z,20.79
2023-05-14T11:25:47.832Z,20.91
2023-05-14T11:28:16.194Z,21.12
2023-05-14T11:30:47.491Z,21.39
2023-05-14T11:33:16.279Z,21.44
2023-05-14T11:35:47.621Z,21.75
2023-05-14T11:38:30.964Z,22.07
2023-05-14T11:41:01.526Z,22.54
2023-05-14T11:44:09.259Z,22.36
2023-05-14T11:46:53.622Z,22.09
2023-05-14T12:04:14.272Z,21.32
2023-05-14T12:06:55.092Z,21.23
2023-05-14T12:13:00.989Z,21.66
2023-05-14T12:15:33.484Z,22.02
2023-05-14T12:24:04.664Z,22.37
2023-05-14T12:38:41.686Z,22.56
2023-05-14T12:41:11.447Z,22.56
2023-05-14T13:01:44.129Z,22.44
2023-05-14T13:04:15.313Z,22.28
2023-05-14T13:06:50.761Z,22.03
2023-05-14T13:09:23.734Z,21.72
2023-05-14T13:11:53.684Z,21.58
2023-05-14T13:14:36.219Z,21.42
2023-05-14T13:17:08.571Z,21.41
2023-05-14T13:19:36.755Z,21.29
2023-05-14T13:22:05.596Z,21.16
2023-05-14T13:24:34.244Z,21.00
2023-05-14T13:27:02.702Z,20.92
2023-05-14T13:29:37.536Z,20.85
2023-05-14T13:32:11.862Z,20.91
2023-05-14T13:34:40.402Z,20.95
2023-05-14T13:40:34.682Z,20.76
2023-05-14T13:43:03.656Z,20.68
2023-05-14T13:45:44.766Z,20.60
2023-05-14T13:48:26.524Z,20.59
2023-05-14T13:53:32.559Z,20.39
2023-05-14T13:56:01.900Z,20.27
2023-05-14T13:58:32.628Z,20.05
2023-05-14T14:01:02.508Z,19.87
2023-05-14T14:03:38.079Z,19.77
2023-05-14T14:09:54.497Z,19.72
2023-05-14T14:12:23.637Z,19.73
2023-05-14T14:14:53.316Z,19.86
2023-05-14T14:20:32.907Z,20.01
2023-05-14T14:23:01.593Z,20.10
2023-05-14T14:25:30.112Z,20.17
2023-05-14T14:27:59.016Z,20.22
2023-05-14T14:30:27.740Z,20.23
2023-05-14T14:32:57.163Z,20.23
2023-05-14T14:38:27.935Z,20.31
2023-05-14T14:40:57.065Z,20.42
2023-05-14T14:43:26.509Z,20.44
2023-05-14T14:45:54.681Z,20.68
2023-05-14T14:48:28.454Z,20.85
2023-05-14T14:51:01.985Z,20.97
2023-05-14T14:53:31.903Z,21.14
2023-05-14T14:56:01.481Z,21.25
2023-05-14T14:58:31.746Z,21.40
2023-05-14T15:01:00.987Z,21.65
2023-05-14T15:03:29.595Z,21.65
2023-05-14T15:06:00.066Z,21.41
2023-05-14T15:08:31.793Z,21.24
2023-05-14T15:11:00.685Z,21.00
2023-05-14T15:13:32.516Z,20.82
2023-05-14T15:16:27.492Z,20.55
2023-05-14T15:21:53.507Z,20.30
2023-05-14T15:24:26.280Z,20.35
2023-05-14T15:26:55.072Z,20.40
2023-05-14T15:29:23.729Z,20.42
2023-05-14T15:31:59.462Z,20.54
2023-05-14T15:34:28.214Z,20.71
2023-05-14T15:37:01.149Z,20.80
2023-05-14T15:39:33.732Z,20.76
2023-05-14T15:42:02.252Z,20.78
2023-05-14T15:44:32.825Z,20.75
2023-05-14T15:47:03.577Z,20.63
2023-05-14T15:49:31.790Z,20.57
2023-05-14T15:52:05.763Z,20.65
2023-05-14T15:54:35.822Z,20.86
2023-05-14T15:57:28.107Z,20.92
2023-05-14T15:59:56.946Z,20.92
2023-05-14T16:05:08.819Z,20.66
2023-05-14T16:07:39.860Z,20.58
2023-05-14T16:10:11.463Z,20.49
2023-05-14T16:12:39.847Z,20.33
2023-05-14T16:15:09.641Z,20.32
2023-05-14T16:17:44.333Z,20.13
2023-05-14T16:20:15.576Z,20.03
2023-05-14T16:22:49.198Z,20.01
2023-05-14T16:25:19.282Z,20.07
2023-05-14T16:30:31.435Z,20.29
2023-05-14T16:33:04.525Z,20.48
2023-05-14T16:35:32.720Z,20.58
2023-05-14T16:38:14.185Z,20.44
2023-05-14T16:40:45.669Z,20.40
2023-05-14T16:43:14.948Z,20.29
2023-05-14T16:45:43.826Z,20.23
2023-05-14T16:50:56.342Z,20.17
2023-05-14T16:53:26.201Z,20.15
2023-05-14T16:55:54.302Z,20.05
2023-05-14T16:58:26.739Z,20.03
2023-05-14T17:00:55.264Z,19.94
2023-05-14T17:03:26.194Z,19.87
2023-05-14T17:05:58.006Z,19.75
2023-05-14T17:08:32.704Z,19.71
2023-05-14T17:11:01.542Z,19.67
2023-05-14T17:13:29.974Z,19.60
2023-05-14T17:15:58.523Z,19.59
2023-05-14T17:18:27.634Z,19.56
2023-05-14T17:20:59.927Z,19.47
2023-05-14T17:26:50.852Z,19.41
2023-05-14T17:29:30.474Z,19.36
2023-05-14T17:32:11.820Z,19.32
2023-05-14T18:50:26.705Z,16.98
2023-05-14T19:01:26.018Z,16.91
2023-05-14T19:19:00.167Z,16.75
2023-05-14T19:21:32.033Z,16.72
2023-05-14T19:26:51.939Z,16.68
2023-05-14T19:29:20.481Z,16.69
2023-05-14T19:31:49.080Z,16.72
2023-05-14T19:34:18.245Z,16.73
2023-05-14T19:36:49.259Z,16.76
2023-05-14T19:39:18.624Z,16.76
2023-05-14T19:50:38.587Z,16.62
2023-05-14T19:53:11.408Z,16.66
2023-05-14T19:55:39.933Z,16.65
2023-05-14T19:58:08.488Z,16.65
2023-05-14T20:00:38.198Z,16.71
2023-05-14T20:03:06.461Z,16.72
2023-05-14T20:05:36.514Z,16.77
2023-05-14T20:08:07.818Z,16.81
2023-05-14T20:10:38.356Z,16.86
2023-05-14T20:13:06.834Z,16.90
2023-05-14T20:15:35.442Z,16.94
2023-05-14T20:18:04.134Z,17.02
2023-05-14T20:20:33.354Z,17.08
2023-05-14T20:23:02.061Z,17.13
2023-05-14T20:25:32.951Z,17.14
2023-05-14T20:28:03.467Z,17.16
2023-05-14T20:30:31.596Z,17.23
2023-05-14T20:33:00.865Z,17.27
2023-05-14T20:35:30.388Z,17.27
2023-05-14T20:37:58.946Z,17.30
2023-05-14T20:40:27.070Z,17.30
2023-05-14T20:42:55.630Z,17.30
2023-05-14T20:45:26.668Z,17.32
2023-05-14T20:47:55.847Z,17.37
2023-05-14T20:50:27.388Z,17.37
2023-05-14T20:52:56.688Z,17.41
2023-05-14T20:55:25.571Z,17.45
2023-05-14T20:57:54.746Z,17.43
2023-05-14T21:00:27.038Z,17.50
2023-05-14T21:02:55.802Z,17.53
2023-05-14T21:05:26.502Z,17.55
2023-05-14T21:08:00.911Z,17.56
2023-05-14T21:10:29.706Z,17.58
2023-05-14T21:12:58.358Z,17.59
2023-05-14T21:15:32.596Z,17.58
2023-05-14T21:18:04.267Z,17.57
2023-05-14T21:20:32.748Z,17.59
2023-05-14T21:23:01.500Z,17.60
2023-05-14T21:25:30.155Z,17.58
2023-05-14T21:27:59.177Z,17.63
2023-05-14T21:30:36.293Z,17.63
2023-05-14T21:33:05.386Z,17.63
2023-05-14T21:35:37.162Z,17.63
2023-05-14T21:38:06.332Z,17.63
2023-05-14T21:40:34.424Z,17.63
2023-05-14T21:43:06.554Z,17.56
2023-05-14T21:45:36.941Z,17.53
2023-05-14T21:48:05.542Z,17.47
2023-05-14T21:53:19.527Z,17.37
2023-05-14T21:55:47.806Z,17.30
2023-05-14T21:58:18.024Z,17.24
2023-05-14T22:00:48.131Z,17.18
2023-05-14T22:03:16.530Z,17.17
2023-05-14T22:05:44.850Z,17.16
2023-05-14T22:08:13.152Z,17.12
2023-05-14T22:10:41.672Z,17.12
2023-05-14T22:13:25.676Z,17.15
2023-05-14T22:16:09.185Z,17.10
2023-05-14T22:21:10.039Z,17.07
2023-05-14T22:29:53.780Z,17.07
2023-05-14T22:32:36.132Z,17.09
2023-05-14T22:35:04.993Z,17.09
2023-05-14T22:37:35.041Z,17.08
2023-05-14T22:40:06.658Z,17.08
2023-05-14T22:42:34.919Z,17.11
2023-05-14T22:45:04.850Z,17.10
2023-05-14T22:47:34.975Z,17.04
2023-05-14T22:50:03.031Z,17.05
2023-05-14T22:52:31.884Z,16.97
2023-05-14T22:55:00.984Z,16.92
2023-05-14T22:57:35.021Z,16.93
2023-05-14T23:00:05.008Z,16.93
2023-05-14T23:02:39.564Z,16.98
2023-05-14T23:07:57.932Z,17.00
2023-05-14T23:13:16.576Z,16.92
2023-05-14T23:15:46.293Z,16.90
2023-05-14T23:18:27.121Z,16.88
2023-05-14T23:20:55.586Z,16.87
2023-05-14T23:23:24.245Z,16.86
2023-05-14T23:25:53.235Z,16.84
2023-05-14T23:28:26.371Z,16.83
2023-05-14T23:30:56.124Z,16.82
2023-05-14T23:33:42.420Z,16.80
2023-05-14T23:39:23.102Z,16.78
2023-05-14T23:41:55.669Z,16.76
2023-05-14T23:44:40.842Z,16.75
2023-05-14T23:47:30.908Z,16.77
2023-05-14T23:50:03.124Z,16.81
2023-05-14T23:52:32.597Z,16.84
2023-05-14T23:55:01.887Z,16.86
2023-05-14T23:57:31.102Z,16.85
